Terminal Aerodrome Forecast
Issued by NWS

Home | Current Version | Previous Version | Text Only | Print | Product List | Glossary Off
Versions: 1 2 3 4 5 6 7 8 9 10 11 12 13 14 15 16 17

000
FTUS43 KABR 141735
TAFMBG
TAF
KMBG 141735Z 1418/1518 31014KT P6SM VCSH OVC050
     FM141900 33018G25KT P6SM VCSH OVC025
     FM142200 34020G29KT P6SM BKN030
     FM150000 34019G27KT P6SM SCT090
     FM151100 33013KT P6SM FEW070=

USA.gov is the U.S. government's official web portal to all federal, state and local government web resources and services.